sensor_id;sensor_type;location;lat;lon;timestamp;P1;durP1;ratioP1;P2;durP2;ratioP2
12719;SDS011;6424;48.520;11.228;2023-05-14T00:00:31;9.80;;;8.87;;
12719;SDS011;6424;48.520;11.228;2023-05-14T00:02:57;9.77;;;8.77;;
12719;SDS011;6424;48.520;11.228;2023-05-14T00:05:38;10.67;;;9.53;;
12719;SDS011;6424;48.520;11.228;2023-05-14T00:08:03;10.37;;;9.23;;
12719;SDS011;6424;48.520;11.228;2023-05-14T00:10:45;8.90;;;8.00;;
12719;SDS011;6424;48.520;11.228;2023-05-14T00:13:26;10.17;;;9.17;;
12719;SDS011;6424;48.520;11.228;2023-05-14T00:15:51;9.50;;;8.60;;
12719;SDS011;6424;48.520;11.228;2023-05-14T00:18:32;10.43;;;8.40;;
12719;SDS011;6424;48.520;11.228;2023-05-14T00:21:13;9.60;;;8.60;;
12719;SDS011;6424;48.520;11.228;2023-05-14T00:23:54;9.27;;;8.37;;
12719;SDS011;6424;48.520;11.228;2023-05-14T00:26:35;9.27;;;8.33;;
12719;SDS011;6424;48.520;11.228;2023-05-14T00:29:15;10.27;;;9.10;;
12719;SDS011;6424;48.520;11.228;2023-05-14T00:31:56;9.73;;;8.47;;
12719;SDS011;6424;48.520;11.228;2023-05-14T00:34:37;9.67;;;8.77;;
12719;SDS011;6424;48.520;11.228;2023-05-14T00:37:18;9.33;;;8.33;;
12719;SDS011;6424;48.520;11.228;2023-05-14T00:39:58;10.03;;;8.80;;
12719;SDS011;6424;48.520;11.228;2023-05-14T00:42:24;9.63;;;8.70;;
12719;SDS011;6424;48.520;11.228;2023-05-14T00:45:06;9.27;;;8.37;;
12719;SDS011;6424;48.520;11.228;2023-05-14T00:47:47;9.60;;;8.60;;
12719;SDS011;6424;48.520;11.228;2023-05-14T00:50:29;8.73;;;7.83;;
12719;SDS011;6424;48.520;11.228;2023-05-14T00:53:09;8.93;;;8.10;;
12719;SDS011;6424;48.520;11.228;2023-05-14T00:55:50;8.67;;;7.83;;
12719;SDS011;6424;48.520;11.228;2023-05-14T00:58:32;8.80;;;7.97;;
12719;SDS011;6424;48.520;11.228;2023-05-14T01:01:12;8.13;;;7.33;;
12719;SDS011;6424;48.520;11.228;2023-05-14T01:03:54;10.30;;;8.30;;
12719;SDS011;6424;48.520;11.228;2023-05-14T01:12:46;9.60;;;8.60;;
12719;SDS011;6424;48.520;11.228;2023-05-14T01:15:39;9.73;;;8.73;;
12719;SDS011;6424;48.520;11.228;2023-05-14T01:18:23;9.83;;;8.20;;
12719;SDS011;6424;48.520;11.228;2023-05-14T01:21:16;9.53;;;8.53;;
12719;SDS011;6424;48.520;11.228;2023-05-14T01:24:03;9.53;;;8.63;;
12719;SDS011;6424;48.520;11.228;2023-05-14T01:26:29;9.80;;;8.80;;
12719;SDS011;6424;48.520;11.228;2023-05-14T01:29:22;8.50;;;7.70;;
12719;SDS011;6424;48.520;11.228;2023-05-14T01:32:06;9.10;;;8.20;;
12719;SDS011;6424;48.520;11.228;2023-05-14T01:34:48;10.80;;;8.83;;
12719;SDS011;6424;48.520;11.228;2023-05-14T01:37:30;8.60;;;7.80;;
12719;SDS011;6424;48.520;11.228;2023-05-14T01:40:12;11.10;;;9.10;;
12719;SDS011;6424;48.520;11.228;2023-05-14T01:42:53;10.63;;;8.37;;
12719;SDS011;6424;48.520;11.228;2023-05-14T01:45:35;9.57;;;8.57;;
12719;SDS011;6424;48.520;11.228;2023-05-14T01:48:16;11.00;;;8.67;;
12719;SDS011;6424;48.520;11.228;2023-05-14T01:50:57;10.07;;;8.30;;
12719;SDS011;6424;48.520;11.228;2023-05-14T01:53:38;12.57;;;8.67;;
12719;SDS011;6424;48.520;11.228;2023-05-14T01:56:19;9.50;;;8.50;;
12719;SDS011;6424;48.520;11.228;2023-05-14T01:59:02;9.87;;;8.87;;
12719;SDS011;6424;48.520;11.228;2023-05-14T02:01:43;10.77;;;8.67;;
12719;SDS011;6424;48.520;11.228;2023-05-14T02:04:24;9.97;;;8.90;;
12719;SDS011;6424;48.520;11.228;2023-05-14T02:07:05;9.33;;;8.43;;
12719;SDS011;6424;48.520;11.228;2023-05-14T02:09:45;9.63;;;8.57;;
12719;SDS011;6424;48.520;11.228;2023-05-14T02:12:26;11.03;;;8.20;;
12719;SDS011;6424;48.520;11.228;2023-05-14T02:15:07;9.90;;;8.90;;
12719;SDS011;6424;48.520;11.228;2023-05-14T02:17:50;8.67;;;7.80;;
12719;SDS011;6424;48.520;11.228;2023-05-14T02:20:30;9.63;;;8.60;;
12719;SDS011;6424;48.520;11.228;2023-05-14T02:23:11;9.03;;;8.10;;
12719;SDS011;6424;48.520;11.228;2023-05-14T02:25:52;10.17;;;8.57;;
12719;SDS011;6424;48.520;11.228;2023-05-14T02:28:32;10.40;;;9.30;;
12719;SDS011;6424;48.520;11.228;2023-05-14T02:31:13;9.63;;;8.47;;
12719;SDS011;6424;48.520;11.228;2023-05-14T02:33:56;8.77;;;7.90;;
12719;SDS011;6424;48.520;11.228;2023-05-14T02:36:37;11.13;;;9.33;;
12719;SDS011;6424;48.520;11.228;2023-05-14T02:39:18;10.07;;;9.03;;
12719;SDS011;6424;48.520;11.228;2023-05-14T02:41:58;10.33;;;9.30;;
12719;SDS011;6424;48.520;11.228;2023-05-14T02:44:39;9.90;;;8.90;;
12719;SDS011;6424;48.520;11.228;2023-05-14T02:47:20;10.70;;;9.60;;
12719;SDS011;6424;48.520;11.228;2023-05-14T02:50:01;9.40;;;8.50;;
12719;SDS011;6424;48.520;11.228;2023-05-14T02:52:29;10.13;;;9.03;;
12719;SDS011;6424;48.520;11.228;2023-05-14T02:55:09;10.70;;;9.63;;
12719;SDS011;6424;48.520;11.228;2023-05-14T02:57:51;11.13;;;9.83;;
12719;SDS011;6424;48.520;11.228;2023-05-14T03:00:32;10.40;;;9.40;;
12719;SDS011;6424;48.520;11.228;2023-05-14T03:03:13;11.33;;;9.73;;
12719;SDS011;6424;48.520;11.228;2023-05-14T03:05:54;10.37;;;9.37;;
12719;SDS011;6424;48.520;11.228;2023-05-14T03:08:35;11.63;;;10.30;;
12719;SDS011;6424;48.520;11.228;2023-05-14T03:11:15;11.53;;;10.33;;
12719;SDS011;6424;48.520;11.228;2023-05-14T03:13:56;11.43;;;10.27;;
12719;SDS011;6424;48.520;11.228;2023-05-14T03:16:37;11.67;;;10.47;;
12719;SDS011;6424;48.520;11.228;2023-05-14T03:19:19;10.03;;;9.03;;
12719;SDS011;6424;48.520;11.228;2023-05-14T03:21:59;10.60;;;9.57;;
12719;SDS011;6424;48.520;11.228;2023-05-14T03:24:25;10.43;;;9.43;;
12719;SDS011;6424;48.520;11.228;2023-05-14T03:27:06;10.63;;;9.53;;
12719;SDS011;6424;48.520;11.228;2023-05-14T03:29:47;10.53;;;9.43;;
12719;SDS011;6424;48.520;11.228;2023-05-14T03:32:28;11.13;;;10.03;;
12719;SDS011;6424;48.520;11.228;2023-05-14T03:35:09;10.80;;;9.70;;
12719;SDS011;6424;48.520;11.228;2023-05-14T03:37:50;10.13;;;9.13;;
12719;SDS011;6424;48.520;11.228;2023-05-14T03:40:32;11.13;;;10.00;;
12719;SDS011;6424;48.520;11.228;2023-05-14T03:42:57;10.93;;;9.83;;
12719;SDS011;6424;48.520;11.228;2023-05-14T03:45:23;12.00;;;9.97;;
12719;SDS011;6424;48.520;11.228;2023-05-14T03:48:05;10.67;;;9.57;;
12719;SDS011;6424;48.520;11.228;2023-05-14T03:50:46;10.63;;;9.63;;
12719;SDS011;6424;48.520;11.228;2023-05-14T03:53:27;10.80;;;9.80;;
12719;SDS011;6424;48.520;11.228;2023-05-14T03:56:08;11.17;;;10.07;;
12719;SDS011;6424;48.520;11.228;2023-05-14T03:58:49;11.07;;;9.97;;
12719;SDS011;6424;48.520;11.228;2023-05-14T04:01:29;10.73;;;9.73;;
12719;SDS011;6424;48.520;11.228;2023-05-14T04:04:10;10.43;;;9.33;;
12719;SDS011;6424;48.520;11.228;2023-05-14T04:06:51;10.83;;;9.77;;
12719;SDS011;6424;48.520;11.228;2023-05-14T04:09:32;10.60;;;9.53;;
12719;SDS011;6424;48.520;11.228;2023-05-14T04:11:57;11.37;;;10.27;;
12719;SDS011;6424;48.520;11.228;2023-05-14T04:14:23;11.17;;;9.97;;
12719;SDS011;6424;48.520;11.228;2023-05-14T04:17:04;11.43;;;9.87;;
12719;SDS011;6424;48.520;11.228;2023-05-14T04:19:30;10.33;;;9.33;;
12719;SDS011;6424;48.520;11.228;2023-05-14T04:22:10;11.23;;;10.03;;
12719;SDS011;6424;48.520;11.228;2023-05-14T04:24:51;10.17;;;9.17;;
12719;SDS011;6424;48.520;11.228;2023-05-14T04:27:32;10.50;;;9.50;;
12719;SDS011;6424;48.520;11.228;2023-05-14T04:30:13;10.20;;;9.13;;
12719;SDS011;6424;48.520;11.228;2023-05-14T04:32:54;10.23;;;9.23;;
12719;SDS011;6424;48.520;11.228;2023-05-14T04:35:35;10.07;;;9.10;;
12719;SDS011;6424;48.520;11.228;2023-05-14T04:38:16;9.90;;;8.90;;
12719;SDS011;6424;48.520;11.228;2023-05-14T04:40:57;10.37;;;9.10;;
12719;SDS011;6424;48.520;11.228;2023-05-14T04:43:38;10.33;;;9.23;;
12719;SDS011;6424;48.520;11.228;2023-05-14T04:46:19;11.07;;;9.97;;
12719;SDS011;6424;48.520;11.228;2023-05-14T04:49:00;10.93;;;9.77;;
12719;SDS011;6424;48.520;11.228;2023-05-14T04:51:40;13.23;;;10.80;;
12719;SDS011;6424;48.520;11.228;2023-05-14T04:54:21;14.40;;;12.23;;
12719;SDS011;6424;48.520;11.228;2023-05-14T04:57:02;12.90;;;10.80;;
12719;SDS011;6424;48.520;11.228;2023-05-14T04:59:43;13.37;;;10.67;;
12719;SDS011;6424;48.520;11.228;2023-05-14T05:02:23;11.37;;;10.17;;
12719;SDS011;6424;48.520;11.228;2023-05-14T05:04:49;10.97;;;9.23;;
12719;SDS011;6424;48.520;11.228;2023-05-14T05:07:30;10.07;;;8.97;;
12719;SDS011;6424;48.520;11.228;2023-05-14T05:10:11;9.77;;;8.77;;
12719;SDS011;6424;48.520;11.228;2023-05-14T05:12:52;9.50;;;8.47;;
12719;SDS011;6424;48.520;11.228;2023-05-14T05:15:33;9.63;;;8.57;;
12719;SDS011;6424;48.520;11.228;2023-05-14T05:18:13;10.33;;;8.13;;
12719;SDS011;6424;48.520;11.228;2023-05-14T05:20:55;8.30;;;7.50;;
12719;SDS011;6424;48.520;11.228;2023-05-14T05:23:21;9.07;;;7.40;;
12719;SDS011;6424;48.520;11.228;2023-05-14T05:26:01;8.53;;;7.73;;
12719;SDS011;6424;48.520;11.228;2023-05-14T05:28:42;8.63;;;7.73;;
12719;SDS011;6424;48.520;11.228;2023-05-14T05:31:23;8.70;;;7.80;;
12719;SDS011;6424;48.520;11.228;2023-05-14T05:34:03;7.47;;;6.77;;
12719;SDS011;6424;48.520;11.228;2023-05-14T05:36:45;7.37;;;6.30;;
12719;SDS011;6424;48.520;11.228;2023-05-14T05:39:25;7.80;;;7.10;;
12719;SDS011;6424;48.520;11.228;2023-05-14T05:42:06;7.30;;;6.60;;
12719;SDS011;6424;48.520;11.228;2023-05-14T05:44:47;8.07;;;7.27;;
12719;SDS011;6424;48.520;11.228;2023-05-14T05:47:28;8.00;;;7.20;;
12719;SDS011;6424;48.520;11.228;2023-05-14T05:49:54;7.87;;;7.10;;
12719;SDS011;6424;48.520;11.228;2023-05-14T05:52:34;7.50;;;6.80;;
12719;SDS011;6424;48.520;11.228;2023-05-14T05:55:15;7.53;;;6.73;;
12719;SDS011;6424;48.520;11.228;2023-05-14T05:57:56;7.70;;;7.00;;
12719;SDS011;6424;48.520;11.228;2023-05-14T06:00:37;9.53;;;6.63;;
12719;SDS011;6424;48.520;11.228;2023-05-14T06:03:18;7.17;;;6.53;;
12719;SDS011;6424;48.520;11.228;2023-05-14T06:05:58;8.07;;;7.23;;
12719;SDS011;6424;48.520;11.228;2023-05-14T06:08:39;8.43;;;7.60;;
12719;SDS011;6424;48.520;11.228;2023-05-14T06:11:21;7.53;;;6.83;;
12719;SDS011;6424;48.520;11.228;2023-05-14T06:14:02;7.93;;;7.00;;
12719;SDS011;6424;48.520;11.228;2023-05-14T06:16:42;7.97;;;7.17;;
12719;SDS011;6424;48.520;11.228;2023-05-14T06:19:23;8.90;;;6.87;;
12719;SDS011;6424;48.520;11.228;2023-05-14T06:22:04;9.03;;;7.13;;
12719;SDS011;6424;48.520;11.228;2023-05-14T06:24:46;6.97;;;6.37;;
12719;SDS011;6424;48.520;11.228;2023-05-14T06:27:27;7.67;;;6.97;;
12719;SDS011;6424;48.520;11.228;2023-05-14T06:30:08;7.37;;;6.73;;
12719;SDS011;6424;48.520;11.228;2023-05-14T06:32:50;7.53;;;6.80;;
12719;SDS011;6424;48.520;11.228;2023-05-14T06:35:31;7.00;;;6.30;;
12719;SDS011;6424;48.520;11.228;2023-05-14T06:37:57;7.00;;;6.40;;
12719;SDS011;6424;48.520;11.228;2023-05-14T06:40:37;7.80;;;7.00;;
12719;SDS011;6424;48.520;11.228;2023-05-14T06:43:18;8.43;;;7.00;;
12719;SDS011;6424;48.520;11.228;2023-05-14T06:45:59;6.60;;;5.90;;
12719;SDS011;6424;48.520;11.228;2023-05-14T06:48:40;7.03;;;6.33;;
12719;SDS011;6424;48.520;11.228;2023-05-14T06:51:21;6.57;;;5.90;;
12719;SDS011;6424;48.520;11.228;2023-05-14T06:54:02;5.97;;;5.47;;
12719;SDS011;6424;48.520;11.228;2023-05-14T06:56:43;7.10;;;6.40;;
12719;SDS011;6424;48.520;11.228;2023-05-14T06:59:08;6.53;;;5.93;;
12719;SDS011;6424;48.520;11.228;2023-05-14T07:01:49;6.53;;;5.93;;
12719;SDS011;6424;48.520;11.228;2023-05-14T07:04:30;6.90;;;6.10;;
12719;SDS011;6424;48.520;11.228;2023-05-14T07:07:11;5.97;;;5.47;;
12719;SDS011;6424;48.520;11.228;2023-05-14T07:09:54;5.37;;;4.87;;
12719;SDS011;6424;48.520;11.228;2023-05-14T07:12:35;6.23;;;5.63;;
12719;SDS011;6424;48.520;11.228;2023-05-14T07:15:16;5.60;;;5.10;;
12719;SDS011;6424;48.520;11.228;2023-05-14T07:17:57;6.30;;;5.70;;
12719;SDS011;6424;48.520;11.228;2023-05-14T07:20:37;5.73;;;5.23;;
12719;SDS011;6424;48.520;11.228;2023-05-14T07:23:18;5.40;;;4.83;;
12719;SDS011;6424;48.520;11.228;2023-05-14T07:25:44;6.77;;;5.30;;
12719;SDS011;6424;48.520;11.228;2023-05-14T07:28:10;5.40;;;4.90;;
12719;SDS011;6424;48.520;11.228;2023-05-14T07:30:51;6.20;;;5.60;;
12719;SDS011;6424;48.520;11.228;2023-05-14T07:33:32;5.60;;;5.00;;
12719;SDS011;6424;48.520;11.228;2023-05-14T07:36:12;5.87;;;5.37;;
12719;SDS011;6424;48.520;11.228;2023-05-14T07:38:53;5.67;;;5.03;;
12719;SDS011;6424;48.520;11.228;2023-05-14T07:41:19;6.13;;;5.53;;
12719;SDS011;6424;48.520;11.228;2023-05-14T07:44:00;5.33;;;4.80;;
12719;SDS011;6424;48.520;11.228;2023-05-14T07:46:41;5.63;;;5.13;;
12719;SDS011;6424;48.520;11.228;2023-05-14T07:49:22;5.27;;;4.83;;
12719;SDS011;6424;48.520;11.228;2023-05-14T07:52:03;5.60;;;5.10;;
12719;SDS011;6424;48.520;11.228;2023-05-14T07:54:43;5.80;;;4.73;;
12719;SDS011;6424;48.520;11.228;2023-05-14T07:57:24;6.07;;;5.47;;
12719;SDS011;6424;48.520;11.228;2023-05-14T08:00:05;5.53;;;5.03;;
12719;SDS011;6424;48.520;11.228;2023-05-14T08:02:47;7.70;;;5.10;;
12719;SDS011;6424;48.520;11.228;2023-05-14T08:05:28;5.43;;;4.93;;
12719;SDS011;6424;48.520;11.228;2023-05-14T08:08:09;6.10;;;5.50;;
12719;SDS011;6424;48.520;11.228;2023-05-14T08:10:49;5.33;;;4.83;;
12719;SDS011;6424;48.520;11.228;2023-05-14T08:13:30;5.93;;;5.30;;
12719;SDS011;6424;48.520;11.228;2023-05-14T08:16:11;6.23;;;5.53;;
12719;SDS011;6424;48.520;11.228;2023-05-14T08:18:52;5.70;;;5.20;;
12719;SDS011;6424;48.520;11.228;2023-05-14T08:21:33;5.27;;;4.80;;
12719;SDS011;6424;48.520;11.228;2023-05-14T08:24:13;5.73;;;4.83;;
12719;SDS011;6424;48.520;11.228;2023-05-14T08:26:54;5.47;;;4.50;;
12719;SDS011;6424;48.520;11.228;2023-05-14T08:29:35;5.10;;;4.70;;
12719;SDS011;6424;48.520;11.228;2023-05-14T08:32:16;4.60;;;4.20;;
12719;SDS011;6424;48.520;11.228;2023-05-14T08:34:57;5.53;;;4.80;;
12719;SDS011;6424;48.520;11.228;2023-05-14T08:37:23;6.47;;;5.57;;
12719;SDS011;6424;48.520;11.228;2023-05-14T08:40:04;5.70;;;5.20;;
12719;SDS011;6424;48.520;11.228;2023-05-14T08:42:47;4.80;;;4.40;;
12719;SDS011;6424;48.520;11.228;2023-05-14T08:45:29;4.80;;;4.30;;
12719;SDS011;6424;48.520;11.228;2023-05-14T08:48:13;5.40;;;4.90;;
12719;SDS011;6424;48.520;11.228;2023-05-14T08:50:57;8.40;;;5.10;;
12719;SDS011;6424;48.520;11.228;2023-05-14T08:53:38;5.37;;;4.87;;
12719;SDS011;6424;48.520;11.228;2023-05-14T08:56:05;4.93;;;4.43;;
12719;SDS011;6424;48.520;11.228;2023-05-14T08:58:47;5.30;;;4.77;;
12719;SDS011;6424;48.520;11.228;2023-05-14T09:01:28;5.57;;;4.90;;
12719;SDS011;6424;48.520;11.228;2023-05-14T09:04:09;5.83;;;5.23;;
12719;SDS011;6424;48.520;11.228;2023-05-14T09:06:52;5.63;;;5.13;;
12719;SDS011;6424;48.520;11.228;2023-05-14T09:09:19;6.00;;;5.30;;
12719;SDS011;6424;48.520;11.228;2023-05-14T09:11:47;5.33;;;4.83;;
12719;SDS011;6424;48.520;11.228;2023-05-14T09:14:14;5.60;;;5.00;;
12719;SDS011;6424;48.520;11.228;2023-05-14T09:16:55;7.10;;;6.17;;
12719;SDS011;6424;48.520;11.228;2023-05-14T09:19:36;5.47;;;4.77;;
12719;SDS011;6424;48.520;11.228;2023-05-14T09:22:20;5.47;;;4.97;;
12719;SDS011;6424;48.520;11.228;2023-05-14T09:25:02;4.60;;;4.20;;
12719;SDS011;6424;48.520;11.228;2023-05-14T09:27:51;5.17;;;4.33;;
12719;SDS011;6424;48.520;11.228;2023-05-14T09:30:33;5.83;;;4.80;;
12719;SDS011;6424;48.520;11.228;2023-05-14T09:33:24;5.10;;;4.67;;
12719;SDS011;6424;48.520;11.228;2023-05-14T09:36:06;5.80;;;4.83;;
12719;SDS011;6424;48.520;11.228;2023-05-14T09:38:47;5.33;;;4.83;;
12719;SDS011;6424;48.520;11.228;2023-05-14T09:41:28;4.50;;;4.10;;
12719;SDS011;6424;48.520;11.228;2023-05-14T09:44:09;3.93;;;3.63;;
12719;SDS011;6424;48.520;11.228;2023-05-14T09:46:50;4.10;;;3.80;;
12719;SDS011;6424;48.520;11.228;2023-05-14T09:49:32;5.70;;;4.80;;
12719;SDS011;6424;48.520;11.228;2023-05-14T09:52:13;5.17;;;4.67;;
12719;SDS011;6424;48.520;11.228;2023-05-14T09:54:54;4.37;;;3.97;;
12719;SDS011;6424;48.520;11.228;2023-05-14T09:57:34;4.93;;;3.70;;
12719;SDS011;6424;48.520;11.228;2023-05-14T10:00:15;5.37;;;3.80;;
12719;SDS011;6424;48.520;11.228;2023-05-14T10:02:57;3.87;;;3.47;;
12719;SDS011;6424;48.520;11.228;2023-05-14T10:05:39;3.30;;;3.00;;
12719;SDS011;6424;48.520;11.228;2023-05-14T10:08:23;3.67;;;3.33;;
12719;SDS011;6424;48.520;11.228;2023-05-14T10:11:12;3.20;;;2.90;;
12719;SDS011;6424;48.520;11.228;2023-05-14T10:16:49;3.50;;;3.20;;
12719;SDS011;6424;48.520;11.228;2023-05-14T10:19:32;3.53;;;3.23;;
12719;SDS011;6424;48.520;11.228;2023-05-14T10:22:16;3.30;;;3.00;;
12719;SDS011;6424;48.520;11.228;2023-05-14T10:25:01;3.13;;;2.77;;
12719;SDS011;6424;48.520;11.228;2023-05-14T10:27:28;3.10;;;2.80;;
12719;SDS011;6424;48.520;11.228;2023-05-14T10:29:54;2.90;;;2.70;;
12719;SDS011;6424;48.520;11.228;2023-05-14T10:32:21;3.30;;;3.00;;
12719;SDS011;6424;48.520;11.228;2023-05-14T10:35:17;3.87;;;3.17;;
12719;SDS011;6424;48.520;11.228;2023-05-14T10:37:59;4.03;;;3.70;;
12719;SDS011;6424;48.520;11.228;2023-05-14T10:40:40;4.30;;;3.97;;
12719;SDS011;6424;48.520;11.228;2023-05-14T10:43:21;6.23;;;5.63;;
12719;SDS011;6424;48.520;11.228;2023-05-14T10:46:07;4.97;;;4.50;;
12719;SDS011;6424;48.520;11.228;2023-05-14T10:48:50;7.80;;;6.60;;
12719;SDS011;6424;48.520;11.228;2023-05-14T10:51:30;6.20;;;4.70;;
12719;SDS011;6424;48.520;11.228;2023-05-14T10:54:12;5.17;;;3.83;;
12719;SDS011;6424;48.520;11.228;2023-05-14T10:56:57;3.33;;;2.83;;
12719;SDS011;6424;48.520;11.228;2023-05-14T10:59:41;3.67;;;3.10;;
12719;SDS011;6424;48.520;11.228;2023-05-14T11:05:02;2.97;;;2.77;;
12719;SDS011;6424;48.520;11.228;2023-05-14T11:07:48;3.23;;;2.93;;
12719;SDS011;6424;48.520;11.228;2023-05-14T11:10:30;3.27;;;3.03;;
12719;SDS011;6424;48.520;11.228;2023-05-14T11:13:11;3.63;;;3.20;;
12719;SDS011;6424;48.520;11.228;2023-05-14T11:15:53;3.27;;;2.97;;
12719;SDS011;6424;48.520;11.228;2023-05-14T11:18:35;3.60;;;3.30;;
12719;SDS011;6424;48.520;11.228;2023-05-14T11:21:17;2.80;;;2.60;;
12719;SDS011;6424;48.520;11.228;2023-05-14T11:23:45;4.07;;;2.50;;
12719;SDS011;6424;48.520;11.228;2023-05-14T11:26:26;4.30;;;3.90;;
12719;SDS011;6424;48.520;11.228;2023-05-14T11:29:06;2.80;;;2.60;;
12719;SDS011;6424;48.520;11.228;2023-05-14T11:31:48;2.63;;;2.43;;
12719;SDS011;6424;48.520;11.228;2023-05-14T11:34:29;2.53;;;2.33;;
12719;SDS011;6424;48.520;11.228;2023-05-14T11:37:11;2.97;;;2.60;;
12719;SDS011;6424;48.520;11.228;2023-05-14T11:39:53;2.93;;;2.73;;
12719;SDS011;6424;48.520;11.228;2023-05-14T11:42:20;2.87;;;2.60;;
12719;SDS011;6424;48.520;11.228;2023-05-14T11:45:01;2.80;;;2.60;;
12719;SDS011;6424;48.520;11.228;2023-05-14T11:47:28;3.63;;;2.60;;
12719;SDS011;6424;48.520;11.228;2023-05-14T11:50:09;2.80;;;2.60;;
12719;SDS011;6424;48.520;11.228;2023-05-14T11:52:54;2.60;;;2.40;;
12719;SDS011;6424;48.520;11.228;2023-05-14T11:55:36;2.97;;;2.67;;
12719;SDS011;6424;48.520;11.228;2023-05-14T11:58:17;2.70;;;2.43;;
12719;SDS011;6424;48.520;11.228;2023-05-14T12:00:58;2.73;;;2.50;;
12719;SDS011;6424;48.520;11.228;2023-05-14T12:03:38;2.60;;;2.40;;
12719;SDS011;6424;48.520;11.228;2023-05-14T12:06:19;2.93;;;2.40;;
12719;SDS011;6424;48.520;11.228;2023-05-14T12:09:00;3.20;;;2.73;;
12719;SDS011;6424;48.520;11.228;2023-05-14T12:11:44;2.30;;;2.10;;
12719;SDS011;6424;48.520;11.228;2023-05-14T12:14:25;2.50;;;2.30;;
12719;SDS011;6424;48.520;11.228;2023-05-14T12:17:13;4.10;;;2.47;;
12719;SDS011;6424;48.520;11.228;2023-05-14T12:20:00;2.40;;;2.20;;
12719;SDS011;6424;48.520;11.228;2023-05-14T12:22:41;2.70;;;2.50;;
12719;SDS011;6424;48.520;11.228;2023-05-14T12:25:22;2.37;;;2.17;;
12719;SDS011;6424;48.520;11.228;2023-05-14T12:28:14;2.83;;;2.63;;
12719;SDS011;6424;48.520;11.228;2023-05-14T12:30:56;3.97;;;3.63;;
12719;SDS011;6424;48.520;11.228;2023-05-14T12:33:38;2.80;;;2.60;;
12719;SDS011;6424;48.520;11.228;2023-05-14T12:36:04;3.33;;;2.50;;
12719;SDS011;6424;48.520;11.228;2023-05-14T12:38:44;2.57;;;2.00;;
12719;SDS011;6424;48.520;11.228;2023-05-14T12:41:25;2.50;;;2.30;;
12719;SDS011;6424;48.520;11.228;2023-05-14T12:44:06;4.70;;;3.03;;
12719;SDS011;6424;48.520;11.228;2023-05-14T12:46:47;2.57;;;2.37;;
12719;SDS011;6424;48.520;11.228;2023-05-14T12:49:13;7.73;;;6.10;;
12719;SDS011;6424;48.520;11.228;2023-05-14T12:51:54;2.67;;;2.47;;
12719;SDS011;6424;48.520;11.228;2023-05-14T12:54:19;2.33;;;2.00;;
12719;SDS011;6424;48.520;11.228;2023-05-14T12:57:00;2.30;;;2.10;;
12719;SDS011;6424;48.520;11.228;2023-05-14T12:59:42;2.17;;;1.97;;
12719;SDS011;6424;48.520;11.228;2023-05-14T13:02:23;2.13;;;1.93;;
12719;SDS011;6424;48.520;11.228;2023-05-14T13:05:04;2.47;;;2.27;;
12719;SDS011;6424;48.520;11.228;2023-05-14T13:07:45;2.63;;;2.30;;
12719;SDS011;6424;48.520;11.228;2023-05-14T13:10:11;2.40;;;2.20;;
12719;SDS011;6424;48.520;11.228;2023-05-14T13:12:52;2.90;;;2.50;;
12719;SDS011;6424;48.520;11.228;2023-05-14T13:15:34;2.60;;;2.23;;
12719;SDS011;6424;48.520;11.228;2023-05-14T13:18:16;2.07;;;1.90;;
12719;SDS011;6424;48.520;11.228;2023-05-14T13:20:56;2.33;;;2.10;;
12719;SDS011;6424;48.520;11.228;2023-05-14T13:23:37;2.80;;;1.97;;
12719;SDS011;6424;48.520;11.228;2023-05-14T13:26:18;2.20;;;1.90;;
12719;SDS011;6424;48.520;11.228;2023-05-14T13:28:59;2.30;;;2.10;;
12719;SDS011;6424;48.520;11.228;2023-05-14T13:31:41;2.10;;;1.90;;
12719;SDS011;6424;48.520;11.228;2023-05-14T13:34:21;2.70;;;2.43;;
12719;SDS011;6424;48.520;11.228;2023-05-14T13:37:02;3.20;;;2.00;;
12719;SDS011;6424;48.520;11.228;2023-05-14T13:39:43;2.20;;;2.00;;
12719;SDS011;6424;48.520;11.228;2023-05-14T13:42:24;1.80;;;1.70;;
12719;SDS011;6424;48.520;11.228;2023-05-14T13:45:06;2.43;;;2.23;;
12719;SDS011;6424;48.520;11.228;2023-05-14T13:47:47;2.57;;;2.10;;
12719;SDS011;6424;48.520;11.228;2023-05-14T13:50:28;8.97;;;6.20;;
12719;SDS011;6424;48.520;11.228;2023-05-14T13:53:08;4.07;;;2.67;;
12719;SDS011;6424;48.520;11.228;2023-05-14T13:55:51;2.73;;;2.30;;
12719;SDS011;6424;48.520;11.228;2023-05-14T13:58:39;3.47;;;2.00;;
12719;SDS011;6424;48.520;11.228;2023-05-14T14:01:20;5.17;;;4.30;;
12719;SDS011;6424;48.520;11.228;2023-05-14T14:04:02;2.87;;;2.30;;
12719;SDS011;6424;48.520;11.228;2023-05-14T14:06:43;2.73;;;2.37;;
12719;SDS011;6424;48.520;11.228;2023-05-14T14:09:23;2.60;;;2.20;;
12719;SDS011;6424;48.520;11.228;2023-05-14T14:12:04;2.13;;;2.00;;
12719;SDS011;6424;48.520;11.228;2023-05-14T14:14:46;2.77;;;2.40;;
12719;SDS011;6424;48.520;11.228;2023-05-14T14:17:26;3.70;;;2.37;;
12719;SDS011;6424;48.520;11.228;2023-05-14T14:20:07;3.00;;;2.20;;
12719;SDS011;6424;48.520;11.228;2023-05-14T14:22:48;2.53;;;2.33;;
12719;SDS011;6424;48.520;11.228;2023-05-14T14:25:29;3.20;;;2.90;;
12719;SDS011;6424;48.520;11.228;2023-05-14T14:28:10;2.97;;;2.77;;
12719;SDS011;6424;48.520;11.228;2023-05-14T14:30:51;3.93;;;2.77;;
12719;SDS011;6424;48.520;11.228;2023-05-14T14:33:32;3.03;;;2.60;;
12719;SDS011;6424;48.520;11.228;2023-05-14T14:36:13;2.57;;;2.03;;
12719;SDS011;6424;48.520;11.228;2023-05-14T14:38:53;2.73;;;2.00;;
12719;SDS011;6424;48.520;11.228;2023-05-14T14:41:34;2.07;;;1.87;;
12719;SDS011;6424;48.520;11.228;2023-05-14T14:44:15;2.30;;;2.10;;
12719;SDS011;6424;48.520;11.228;2023-05-14T14:46:56;2.90;;;2.20;;
12719;SDS011;6424;48.520;11.228;2023-05-14T14:49:22;2.43;;;2.23;;
12719;SDS011;6424;48.520;11.228;2023-05-14T14:52:02;3.27;;;2.30;;
12719;SDS011;6424;48.520;11.228;2023-05-14T14:54:43;3.03;;;2.10;;
12719;SDS011;6424;48.520;11.228;2023-05-14T14:57:24;2.60;;;2.40;;
12719;SDS011;6424;48.520;11.228;2023-05-14T15:00:06;5.50;;;2.93;;
12719;SDS011;6424;48.520;11.228;2023-05-14T15:02:48;4.10;;;2.63;;
12719;SDS011;6424;48.520;11.228;2023-05-14T15:05:29;6.40;;;2.90;;
12719;SDS011;6424;48.520;11.228;2023-05-14T15:08:09;8.03;;;3.90;;
12719;SDS011;6424;48.520;11.228;2023-05-14T15:10:50;7.57;;;3.57;;
12719;SDS011;6424;48.520;11.228;2023-05-14T15:13:31;4.87;;;3.50;;
12719;SDS011;6424;48.520;11.228;2023-05-14T15:16:12;3.30;;;2.70;;
12719;SDS011;6424;48.520;11.228;2023-05-14T15:18:52;3.50;;;2.40;;
12719;SDS011;6424;48.520;11.228;2023-05-14T15:21:33;4.50;;;2.30;;
12719;SDS011;6424;48.520;11.228;2023-05-14T15:24:14;2.60;;;2.30;;
12719;SDS011;6424;48.520;11.228;2023-05-14T15:26:55;2.97;;;2.77;;
12719;SDS011;6424;48.520;11.228;2023-05-14T15:29:36;2.73;;;2.53;;
12719;SDS011;6424;48.520;11.228;2023-05-14T15:32:17;2.40;;;2.20;;
12719;SDS011;6424;48.520;11.228;2023-05-14T15:34:57;2.93;;;2.20;;
12719;SDS011;6424;48.520;11.228;2023-05-14T15:37:39;2.83;;;1.90;;
12719;SDS011;6424;48.520;11.228;2023-05-14T15:40:07;2.70;;;2.03;;
12719;SDS011;6424;48.520;11.228;2023-05-14T15:42:48;3.33;;;2.40;;
12719;SDS011;6424;48.520;11.228;2023-05-14T15:45:28;3.37;;;2.20;;
12719;SDS011;6424;48.520;11.228;2023-05-14T15:48:09;3.17;;;2.87;;
12719;SDS011;6424;48.520;11.228;2023-05-14T15:50:50;4.10;;;3.00;;
12719;SDS011;6424;48.520;11.228;2023-05-14T15:53:31;5.40;;;3.33;;
12719;SDS011;6424;48.520;11.228;2023-05-14T15:56:12;3.00;;;2.70;;
12719;SDS011;6424;48.520;11.228;2023-05-14T15:58:38;2.97;;;2.77;;
12719;SDS011;6424;48.520;11.228;2023-05-14T16:01:19;3.87;;;2.30;;
12719;SDS011;6424;48.520;11.228;2023-05-14T16:04:00;3.90;;;2.90;;
12719;SDS011;6424;48.520;11.228;2023-05-14T16:06:40;4.77;;;3.50;;
12719;SDS011;6424;48.520;11.228;2023-05-14T16:09:24;3.80;;;3.27;;
12719;SDS011;6424;48.520;11.228;2023-05-14T16:12:06;3.40;;;3.10;;